2D7 weather

Beach City Airport
Beach City, Ohio, United States

Public forecast

Using degrees Fahrenheit for public forecast. Weather courtesy of forecast.io.

Closest aviation weather report (METAR) to Beach City Airport

Closest report is Harry Clever Field, 12.2 nm (22.7 km) SSE. Retrieved 2020/01/25 00:53 UTC (45 minutes ago):

KPHD 250053Z AUTO 12008KT 4SM RA BR OVC036 07/06 A2990 RMK AO2 SLP129 P0010 T00670056

Closest aviation forecast (TAF) to Beach City Airport

Closest forecast is Akron Canton Regional Airport, 17.0 nm (31.5 km) NNE. Retrieved 2020-01-25 00:42 UTC (56 minutes ago):

TAF KCAK 242339Z 2500/2524 12014G22KT 4SM -SHRA BR OVC006 FM250200 16008KT 4SM BR VCSH OVC015 FM250800 19005KT 3SM BR VCSH OVC008 FM251400 22006KT P6SM OVC003 FM252300 23008KT 4SM -SHSN BR OVC003